DAL2670 KATL-KBWI
Flight info
| Callsign | DAL2670 |
|---|---|
| Flight time | N/A |
| Altitude | 35000 |
| Route | JACCC2 KELLN Q58 PEETT DCT THHMP RAVNN8 |
| Aircraft | B739/M-SDE2E3FGHIRWXY/LB1 |
Departure
| Time | 2026-05-08 01:07 |
|---|---|
| Airport | Hartsfield Jackson Atlanta International Airport (KATL) |
Arrival
| Time | N/A |
|---|---|
| Airport | Baltimore/Washington International Thurgood Marshall Airport (KBWI) |
| Time | Latitude | Longitude | Altitude | Speed | Heading |
|---|---|---|---|---|---|
| 2026-05-08 00:44 | 33.63924 | -84.43864 | 1023 ft | 0 kts | 270° |
| 2026-05-08 00:57 | 33.63924 | -84.43849 | 1023 ft | 1 kts | 270° |
| 2026-05-08 00:57 | 33.63924 | -84.43837 | 1023 ft | 2 kts | 262° |
| 2026-05-08 00:57 | 33.63929 | -84.43820 | 1023 ft | 2 kts | 242° |
| 2026-05-08 00:58 | 33.63938 | -84.43806 | 1023 ft | 2 kts | 225° |
| 2026-05-08 00:58 | 33.63950 | -84.43795 | 1023 ft | 2 kts | 207° |
| 2026-05-08 00:58 | 33.63964 | -84.43789 | 1023 ft | 2 kts | 190° |
| 2026-05-08 00:58 | 33.63973 | -84.43787 | 1023 ft | 1 kts | 180° |
| 2026-05-08 00:59 | 33.63978 | -84.43788 | 1023 ft | 0 kts | 179° |
| 2026-05-08 01:00 | 33.63977 | -84.43788 | 1023 ft | 0 kts | 179° |
| 2026-05-08 01:00 | 33.63952 | -84.43787 | 1023 ft | 6 kts | 177° |
| 2026-05-08 01:00 | 33.63886 | -84.43785 | 1023 ft | 12 kts | 180° |
| 2026-05-08 01:01 | 33.63785 | -84.43786 | 1023 ft | 17 kts | 182° |
| 2026-05-08 01:01 | 33.63683 | -84.43774 | 1023 ft | 11 kts | 146° |
| 2026-05-08 01:01 | 33.63661 | -84.43690 | 1023 ft | 11 kts | 89° |
| 2026-05-08 01:01 | 33.63663 | -84.43587 | 1023 ft | 13 kts | 89° |
| 2026-05-08 01:02 | 33.63663 | -84.43469 | 1023 ft | 15 kts | 89° |
| 2026-05-08 01:02 | 33.63667 | -84.43336 | 1023 ft | 16 kts | 89° |
| 2026-05-08 01:02 | 33.63665 | -84.43190 | 1023 ft | 18 kts | 91° |
| 2026-05-08 01:02 | 33.63664 | -84.43027 | 1023 ft | 20 kts | 90° |
| 2026-05-08 01:03 | 33.63663 | -84.42841 | 1023 ft | 24 kts | 92° |
| 2026-05-08 01:03 | 33.63656 | -84.42626 | 1023 ft | 26 kts | 91° |
| 2026-05-08 01:03 | 33.63654 | -84.42397 | 1023 ft | 27 kts | 90° |
| 2026-05-08 01:03 | 33.63653 | -84.42188 | 1022 ft | 22 kts | 91° |
| 2026-05-08 01:04 | 33.63653 | -84.41999 | 1020 ft | 22 kts | 89° |
| 2026-05-08 01:04 | 33.63656 | -84.41816 | 1020 ft | 21 kts | 88° |
| 2026-05-08 01:04 | 33.63655 | -84.41647 | 1021 ft | 19 kts | 91° |
| 2026-05-08 01:04 | 33.63656 | -84.41490 | 1019 ft | 19 kts | 87° |
| 2026-05-08 01:05 | 33.63657 | -84.41311 | 1014 ft | 23 kts | 89° |
| 2026-05-08 01:05 | 33.63660 | -84.41094 | 1009 ft | 27 kts | 90° |
| 2026-05-08 01:05 | 33.63657 | -84.40854 | 1005 ft | 28 kts | 91° |
| 2026-05-08 01:05 | 33.63612 | -84.40743 | 1004 ft | 11 kts | 177° |
| 2026-05-08 01:06 | 33.63540 | -84.40745 | 1004 ft | 9 kts | 184° |
| 2026-05-08 01:06 | 33.63477 | -84.40771 | 1004 ft | 9 kts | 235° |
| 2026-05-08 01:06 | 33.63470 | -84.40884 | 1005 ft | 34 kts | 270° |
| 2026-05-08 01:06 | 33.63469 | -84.41525 | 1009 ft | 117 kts | 270° |
| 2026-05-08 01:07 | 33.63466 | -84.42805 | 1062 ft | 182 kts | 272° |
| 2026-05-08 01:07 | 33.63490 | -84.44422 | 1668 ft | 208 kts | 272° |
| 2026-05-08 01:07 | 33.63215 | -84.46187 | 2400 ft | 226 kts | 252° |
| 2026-05-08 01:07 | 33.62493 | -84.47866 | 3065 ft | 233 kts | 246° |
| 2026-05-08 01:08 | 33.61750 | -84.49625 | 3697 ft | 236 kts | 250° |
| 2026-05-08 01:08 | 33.61127 | -84.51401 | 4492 ft | 231 kts | 252° |
| 2026-05-08 01:08 | 33.60561 | -84.53153 | 5260 ft | 228 kts | 253° |
| 2026-05-08 01:08 | 33.59994 | -84.54903 | 5935 ft | 228 kts | 252° |
| 2026-05-08 01:09 | 33.59285 | -84.56606 | 6638 ft | 231 kts | 241° |
| 2026-05-08 01:09 | 33.58075 | -84.57873 | 7291 ft | 243 kts | 216° |
| 2026-05-08 01:09 | 33.56419 | -84.58452 | 7890 ft | 257 kts | 195° |
| 2026-05-08 01:09 | 33.54614 | -84.58531 | 8506 ft | 262 kts | 189° |
| 2026-05-08 01:10 | 33.52755 | -84.58505 | 9060 ft | 266 kts | 188° |
| 2026-05-08 01:10 | 33.50875 | -84.58279 | 9576 ft | 283 kts | 176° |
| 2026-05-08 01:10 | 33.49029 | -84.57358 | 10234 ft | 300 kts | 156° |
| 2026-05-08 01:10 | 33.47359 | -84.55656 | 10532 ft | 330 kts | 136° |
| 2026-05-08 01:11 | 33.46130 | -84.53256 | 11037 ft | 348 kts | 115° |
| 2026-05-08 01:11 | 33.45585 | -84.50437 | 11631 ft | 356 kts | 94° |
| 2026-05-08 01:11 | 33.45505 | -84.47457 | 12259 ft | 360 kts | 89° |
| 2026-05-08 01:11 | 33.45537 | -84.44460 | 12875 ft | 365 kts | 87° |
| 2026-05-08 01:12 | 33.45584 | -84.41415 | 13441 ft | 372 kts | 88° |
| 2026-05-08 01:12 | 33.45614 | -84.38278 | 14064 ft | 377 kts | 89° |
| 2026-05-08 01:12 | 33.45736 | -84.35144 | 14669 ft | 381 kts | 80° |
| 2026-05-08 01:12 | 33.46381 | -84.32111 | 15315 ft | 379 kts | 64° |
| 2026-05-08 01:13 | 33.47469 | -84.29229 | 15898 ft | 381 kts | 57° |
| 2026-05-08 01:13 | 33.48707 | -84.26410 | 16431 ft | 386 kts | 55° |
| 2026-05-08 01:13 | 33.49997 | -84.23610 | 17064 ft | 388 kts | 54° |
| 2026-05-08 01:13 | 33.51311 | -84.20767 | 17577 ft | 394 kts | 55° |
| 2026-05-08 01:14 | 33.52639 | -84.17868 | 18086 ft | 401 kts | 55° |
| 2026-05-08 01:14 | 33.53968 | -84.14926 | 18706 ft | 403 kts | 56° |
| 2026-05-08 01:14 | 33.55293 | -84.11975 | 19258 ft | 407 kts | 56° |
| 2026-05-08 01:14 | 33.56638 | -84.08971 | 19767 ft | 411 kts | 56° |
| 2026-05-08 01:15 | 33.57981 | -84.05964 | 20317 ft | 414 kts | 55° |
| 2026-05-08 01:15 | 33.59339 | -84.02920 | 20821 ft | 417 kts | 55° |
| 2026-05-08 01:15 | 33.60712 | -83.99834 | 21361 ft | 419 kts | 55° |
| 2026-05-08 01:15 | 33.62099 | -83.96712 | 21758 ft | 426 kts | 56° |
| 2026-05-08 01:16 | 33.63479 | -83.93596 | 22315 ft | 426 kts | 55° |
| 2026-05-08 01:16 | 33.64869 | -83.90458 | 22698 ft | 432 kts | 56° |
| 2026-05-08 01:16 | 33.66285 | -83.87254 | 23208 ft | 434 kts | 56° |
| 2026-05-08 01:16 | 33.67690 | -83.84076 | 23667 ft | 437 kts | 56° |
| 2026-05-08 01:17 | 33.69131 | -83.80821 | 24044 ft | 442 kts | 55° |
| 2026-05-08 01:17 | 33.70578 | -83.77548 | 24491 ft | 445 kts | 55° |